sensor_id;sensor_type;location;lat;lon;timestamp;P1;durP1;ratioP1;P2;durP2;ratioP2
5127;SDS011;2582;48.770;9.190;2024-01-07T00:02:16;25.77;;;18.70;;
5127;SDS011;2582;48.770;9.190;2024-01-07T00:04:44;23.70;;;18.10;;
5127;SDS011;2582;48.770;9.190;2024-01-07T00:07:10;24.73;;;20.20;;
5127;SDS011;2582;48.770;9.190;2024-01-07T00:09:35;26.43;;;19.33;;
5127;SDS011;2582;48.770;9.190;2024-01-07T00:12:01;22.23;;;17.60;;
5127;SDS011;2582;48.770;9.190;2024-01-07T00:14:26;21.17;;;17.73;;
5127;SDS011;2582;48.770;9.190;2024-01-07T00:16:52;23.00;;;18.30;;
5127;SDS011;2582;48.770;9.190;2024-01-07T00:19:17;20.50;;;17.70;;
5127;SDS011;2582;48.770;9.190;2024-01-07T00:21:43;21.33;;;17.47;;
5127;SDS011;2582;48.770;9.190;2024-01-07T00:24:09;19.10;;;15.50;;
5127;SDS011;2582;48.770;9.190;2024-01-07T00:26:34;20.53;;;16.73;;
5127;SDS011;2582;48.770;9.190;2024-01-07T00:29:00;20.83;;;16.10;;
5127;SDS011;2582;48.770;9.190;2024-01-07T00:31:25;21.90;;;18.10;;
5127;SDS011;2582;48.770;9.190;2024-01-07T00:33:51;21.30;;;16.83;;
5127;SDS011;2582;48.770;9.190;2024-01-07T00:36:16;19.13;;;16.97;;
5127;SDS011;2582;48.770;9.190;2024-01-07T00:38:42;20.50;;;16.97;;
5127;SDS011;2582;48.770;9.190;2024-01-07T00:41:08;18.77;;;15.30;;
5127;SDS011;2582;48.770;9.190;2024-01-07T00:43:33;17.60;;;15.17;;
5127;SDS011;2582;48.770;9.190;2024-01-07T00:45:59;20.27;;;15.43;;
5127;SDS011;2582;48.770;9.190;2024-01-07T00:48:24;18.87;;;15.00;;
5127;SDS011;2582;48.770;9.190;2024-01-07T00:50:50;18.67;;;15.30;;
5127;SDS011;2582;48.770;9.190;2024-01-07T00:53:15;17.50;;;15.17;;
5127;SDS011;2582;48.770;9.190;2024-01-07T00:55:41;19.83;;;15.37;;
5127;SDS011;2582;48.770;9.190;2024-01-07T00:58:06;16.33;;;14.20;;
5127;SDS011;2582;48.770;9.190;2024-01-07T01:00:32;19.30;;;15.80;;
5127;SDS011;2582;48.770;9.190;2024-01-07T01:02:58;19.00;;;15.43;;
5127;SDS011;2582;48.770;9.190;2024-01-07T01:05:23;19.23;;;15.13;;
5127;SDS011;2582;48.770;9.190;2024-01-07T01:07:49;21.60;;;16.57;;
5127;SDS011;2582;48.770;9.190;2024-01-07T01:10:15;18.77;;;16.23;;
5127;SDS011;2582;48.770;9.190;2024-01-07T01:12:42;19.00;;;16.23;;
5127;SDS011;2582;48.770;9.190;2024-01-07T01:15:08;20.83;;;16.30;;
5127;SDS011;2582;48.770;9.190;2024-01-07T01:17:34;22.23;;;16.77;;
5127;SDS011;2582;48.770;9.190;2024-01-07T01:19:59;19.80;;;15.77;;
5127;SDS011;2582;48.770;9.190;2024-01-07T01:22:25;21.13;;;16.63;;
5127;SDS011;2582;48.770;9.190;2024-01-07T01:24:51;20.90;;;17.50;;
5127;SDS011;2582;48.770;9.190;2024-01-07T01:27:18;23.07;;;18.33;;
5127;SDS011;2582;48.770;9.190;2024-01-07T01:29:44;24.20;;;17.33;;
5127;SDS011;2582;48.770;9.190;2024-01-07T01:32:09;21.50;;;17.50;;
5127;SDS011;2582;48.770;9.190;2024-01-07T01:34:35;24.23;;;19.07;;
5127;SDS011;2582;48.770;9.190;2024-01-07T01:37:01;25.37;;;19.00;;
5127;SDS011;2582;48.770;9.190;2024-01-07T01:39:28;24.43;;;18.57;;
5127;SDS011;2582;48.770;9.190;2024-01-07T01:41:54;24.73;;;18.70;;
5127;SDS011;2582;48.770;9.190;2024-01-07T01:44:20;25.03;;;18.70;;
5127;SDS011;2582;48.770;9.190;2024-01-07T01:46:46;23.90;;;18.70;;
5127;SDS011;2582;48.770;9.190;2024-01-07T01:49:12;25.10;;;18.63;;
5127;SDS011;2582;48.770;9.190;2024-01-07T01:51:39;32.23;;;20.37;;
5127;SDS011;2582;48.770;9.190;2024-01-07T01:54:04;30.57;;;20.40;;
5127;SDS011;2582;48.770;9.190;2024-01-07T01:56:31;29.10;;;20.80;;
5127;SDS011;2582;48.770;9.190;2024-01-07T01:58:57;26.90;;;19.90;;
5127;SDS011;2582;48.770;9.190;2024-01-07T02:01:24;26.63;;;19.67;;
5127;SDS011;2582;48.770;9.190;2024-01-07T02:03:50;28.90;;;19.97;;
5127;SDS011;2582;48.770;9.190;2024-01-07T02:06:17;26.70;;;20.07;;
5127;SDS011;2582;48.770;9.190;2024-01-07T02:08:43;26.53;;;19.73;;
5127;SDS011;2582;48.770;9.190;2024-01-07T02:11:19;30.23;;;20.90;;
5127;SDS011;2582;48.770;9.190;2024-01-07T02:13:45;29.53;;;19.90;;
5127;SDS011;2582;48.770;9.190;2024-01-07T02:16:11;27.63;;;20.63;;
5127;SDS011;2582;48.770;9.190;2024-01-07T02:18:38;28.53;;;21.97;;
5127;SDS011;2582;48.770;9.190;2024-01-07T02:21:06;28.33;;;19.80;;
5127;SDS011;2582;48.770;9.190;2024-01-07T02:23:32;25.63;;;20.17;;
5127;SDS011;2582;48.770;9.190;2024-01-07T02:25:58;34.63;;;21.50;;
5127;SDS011;2582;48.770;9.190;2024-01-07T02:28:23;28.47;;;20.53;;
5127;SDS011;2582;48.770;9.190;2024-01-07T02:30:49;29.33;;;22.60;;
5127;SDS011;2582;48.770;9.190;2024-01-07T02:33:15;27.80;;;21.10;;
5127;SDS011;2582;48.770;9.190;2024-01-07T02:35:40;33.70;;;22.43;;
5127;SDS011;2582;48.770;9.190;2024-01-07T02:38:06;25.67;;;19.63;;
5127;SDS011;2582;48.770;9.190;2024-01-07T02:40:31;27.83;;;19.77;;
5127;SDS011;2582;48.770;9.190;2024-01-07T02:42:57;26.53;;;20.43;;
5127;SDS011;2582;48.770;9.190;2024-01-07T02:45:23;25.07;;;18.67;;
5127;SDS011;2582;48.770;9.190;2024-01-07T02:47:49;26.30;;;20.13;;
5127;SDS011;2582;48.770;9.190;2024-01-07T02:50:15;28.17;;;21.73;;
5127;SDS011;2582;48.770;9.190;2024-01-07T02:52:41;27.97;;;20.50;;
5127;SDS011;2582;48.770;9.190;2024-01-07T02:55:07;25.70;;;20.20;;
5127;SDS011;2582;48.770;9.190;2024-01-07T02:57:33;30.87;;;23.57;;
5127;SDS011;2582;48.770;9.190;2024-01-07T02:59:58;28.97;;;22.23;;
5127;SDS011;2582;48.770;9.190;2024-01-07T03:02:24;27.03;;;20.33;;
5127;SDS011;2582;48.770;9.190;2024-01-07T03:04:50;23.83;;;18.17;;
5127;SDS011;2582;48.770;9.190;2024-01-07T03:07:15;27.80;;;20.93;;
5127;SDS011;2582;48.770;9.190;2024-01-07T03:09:41;23.90;;;18.67;;
5127;SDS011;2582;48.770;9.190;2024-01-07T03:12:06;26.17;;;19.83;;
5127;SDS011;2582;48.770;9.190;2024-01-07T03:14:32;26.50;;;20.27;;
5127;SDS011;2582;48.770;9.190;2024-01-07T03:16:58;28.43;;;21.70;;
5127;SDS011;2582;48.770;9.190;2024-01-07T03:19:23;25.70;;;19.30;;
5127;SDS011;2582;48.770;9.190;2024-01-07T03:21:50;25.77;;;18.97;;
5127;SDS011;2582;48.770;9.190;2024-01-07T03:24:15;22.47;;;18.57;;
5127;SDS011;2582;48.770;9.190;2024-01-07T03:26:41;25.03;;;19.67;;
5127;SDS011;2582;48.770;9.190;2024-01-07T03:29:07;25.43;;;20.07;;
5127;SDS011;2582;48.770;9.190;2024-01-07T03:31:32;22.43;;;19.20;;
5127;SDS011;2582;48.770;9.190;2024-01-07T03:33:58;23.17;;;18.20;;
5127;SDS011;2582;48.770;9.190;2024-01-07T03:36:24;27.30;;;20.70;;
5127;SDS011;2582;48.770;9.190;2024-01-07T03:38:49;29.23;;;21.50;;
5127;SDS011;2582;48.770;9.190;2024-01-07T03:41:18;24.53;;;19.20;;
5127;SDS011;2582;48.770;9.190;2024-01-07T03:43:45;21.40;;;18.33;;
5127;SDS011;2582;48.770;9.190;2024-01-07T03:46:12;21.73;;;18.03;;
5127;SDS011;2582;48.770;9.190;2024-01-07T03:48:37;21.47;;;17.27;;
5127;SDS011;2582;48.770;9.190;2024-01-07T03:51:03;20.43;;;17.37;;
5127;SDS011;2582;48.770;9.190;2024-01-07T03:53:29;21.47;;;16.10;;
5127;SDS011;2582;48.770;9.190;2024-01-07T03:55:55;22.30;;;18.43;;
5127;SDS011;2582;48.770;9.190;2024-01-07T03:58:20;23.00;;;19.20;;
5127;SDS011;2582;48.770;9.190;2024-01-07T04:00:46;20.37;;;17.60;;
5127;SDS011;2582;48.770;9.190;2024-01-07T04:03:11;21.30;;;18.93;;
5127;SDS011;2582;48.770;9.190;2024-01-07T04:05:37;20.73;;;16.90;;
5127;SDS011;2582;48.770;9.190;2024-01-07T04:08:03;20.70;;;17.00;;
5127;SDS011;2582;48.770;9.190;2024-01-07T04:10:29;22.17;;;18.03;;
5127;SDS011;2582;48.770;9.190;2024-01-07T04:12:54;21.17;;;18.03;;
5127;SDS011;2582;48.770;9.190;2024-01-07T04:15:20;18.90;;;16.23;;
5127;SDS011;2582;48.770;9.190;2024-01-07T04:17:46;19.80;;;16.27;;
5127;SDS011;2582;48.770;9.190;2024-01-07T04:20:15;20.93;;;16.67;;
5127;SDS011;2582;48.770;9.190;2024-01-07T04:22:41;22.70;;;17.73;;
5127;SDS011;2582;48.770;9.190;2024-01-07T04:25:06;19.33;;;17.20;;
5127;SDS011;2582;48.770;9.190;2024-01-07T04:27:36;22.27;;;16.50;;
5127;SDS011;2582;48.770;9.190;2024-01-07T04:30:02;23.90;;;18.47;;
5127;SDS011;2582;48.770;9.190;2024-01-07T04:32:28;21.27;;;16.80;;
5127;SDS011;2582;48.770;9.190;2024-01-07T04:34:54;24.30;;;17.00;;
5127;SDS011;2582;48.770;9.190;2024-01-07T04:37:19;22.53;;;17.40;;
5127;SDS011;2582;48.770;9.190;2024-01-07T04:39:45;20.93;;;16.63;;
5127;SDS011;2582;48.770;9.190;2024-01-07T04:42:11;20.03;;;16.97;;
5127;SDS011;2582;48.770;9.190;2024-01-07T04:44:36;24.73;;;18.50;;
5127;SDS011;2582;48.770;9.190;2024-01-07T04:47:02;22.87;;;18.40;;
5127;SDS011;2582;48.770;9.190;2024-01-07T04:49:27;23.43;;;16.87;;
5127;SDS011;2582;48.770;9.190;2024-01-07T04:51:53;23.00;;;17.67;;
5127;SDS011;2582;48.770;9.190;2024-01-07T04:54:19;22.10;;;17.67;;
5127;SDS011;2582;48.770;9.190;2024-01-07T04:56:44;22.40;;;17.70;;
5127;SDS011;2582;48.770;9.190;2024-01-07T04:59:10;23.50;;;17.90;;
5127;SDS011;2582;48.770;9.190;2024-01-07T05:01:36;22.40;;;16.80;;
5127;SDS011;2582;48.770;9.190;2024-01-07T05:04:02;23.73;;;17.80;;
5127;SDS011;2582;48.770;9.190;2024-01-07T05:06:28;18.40;;;15.40;;
5127;SDS011;2582;48.770;9.190;2024-01-07T05:08:53;23.57;;;17.10;;
5127;SDS011;2582;48.770;9.190;2024-01-07T05:11:19;19.47;;;16.10;;
5127;SDS011;2582;48.770;9.190;2024-01-07T05:13:44;17.90;;;14.43;;
5127;SDS011;2582;48.770;9.190;2024-01-07T05:16:20;19.73;;;15.50;;
5127;SDS011;2582;48.770;9.190;2024-01-07T05:18:45;21.23;;;15.50;;
5127;SDS011;2582;48.770;9.190;2024-01-07T05:21:13;20.37;;;15.90;;
5127;SDS011;2582;48.770;9.190;2024-01-07T05:23:48;21.80;;;16.73;;
5127;SDS011;2582;48.770;9.190;2024-01-07T05:26:14;19.30;;;15.10;;
5127;SDS011;2582;48.770;9.190;2024-01-07T05:28:40;16.60;;;13.40;;
5127;SDS011;2582;48.770;9.190;2024-01-07T05:31:14;19.27;;;14.60;;
5127;SDS011;2582;48.770;9.190;2024-01-07T05:33:45;18.63;;;14.60;;
5127;SDS011;2582;48.770;9.190;2024-01-07T05:36:11;17.23;;;13.67;;
5127;SDS011;2582;48.770;9.190;2024-01-07T05:38:37;17.20;;;13.03;;
5127;SDS011;2582;48.770;9.190;2024-01-07T05:41:03;17.83;;;13.90;;
5127;SDS011;2582;48.770;9.190;2024-01-07T05:43:29;17.40;;;14.00;;
5127;SDS011;2582;48.770;9.190;2024-01-07T05:45:54;16.57;;;13.70;;
5127;SDS011;2582;48.770;9.190;2024-01-07T05:48:21;19.33;;;14.87;;
5127;SDS011;2582;48.770;9.190;2024-01-07T05:50:48;18.70;;;14.57;;
5127;SDS011;2582;48.770;9.190;2024-01-07T05:53:13;17.87;;;13.60;;
5127;SDS011;2582;48.770;9.190;2024-01-07T05:55:39;20.23;;;14.60;;
5127;SDS011;2582;48.770;9.190;2024-01-07T05:58:05;17.13;;;13.00;;
5127;SDS011;2582;48.770;9.190;2024-01-07T06:00:31;16.83;;;13.70;;
5127;SDS011;2582;48.770;9.190;2024-01-07T06:02:56;15.50;;;13.30;;
5127;SDS011;2582;48.770;9.190;2024-01-07T06:05:22;15.47;;;13.07;;
5127;SDS011;2582;48.770;9.190;2024-01-07T06:07:48;16.20;;;13.50;;
5127;SDS011;2582;48.770;9.190;2024-01-07T06:10:14;18.70;;;13.90;;
5127;SDS011;2582;48.770;9.190;2024-01-07T06:12:39;19.20;;;14.00;;
5127;SDS011;2582;48.770;9.190;2024-01-07T06:15:05;16.47;;;13.77;;
5127;SDS011;2582;48.770;9.190;2024-01-07T06:17:31;15.10;;;13.00;;
5127;SDS011;2582;48.770;9.190;2024-01-07T06:19:57;16.67;;;13.50;;
5127;SDS011;2582;48.770;9.190;2024-01-07T06:22:22;14.93;;;12.30;;
5127;SDS011;2582;48.770;9.190;2024-01-07T06:24:48;14.70;;;12.20;;
5127;SDS011;2582;48.770;9.190;2024-01-07T06:27:14;17.27;;;14.50;;
5127;SDS011;2582;48.770;9.190;2024-01-07T06:29:39;17.60;;;14.00;;
5127;SDS011;2582;48.770;9.190;2024-01-07T06:32:05;16.83;;;14.17;;
5127;SDS011;2582;48.770;9.190;2024-01-07T06:34:30;15.60;;;12.87;;
5127;SDS011;2582;48.770;9.190;2024-01-07T06:37:00;17.43;;;14.10;;
5127;SDS011;2582;48.770;9.190;2024-01-07T06:39:25;16.90;;;13.80;;
5127;SDS011;2582;48.770;9.190;2024-01-07T06:41:54;15.07;;;13.17;;
5127;SDS011;2582;48.770;9.190;2024-01-07T06:44:19;18.10;;;14.40;;
5127;SDS011;2582;48.770;9.190;2024-01-07T06:46:45;14.50;;;12.93;;
5127;SDS011;2582;48.770;9.190;2024-01-07T06:49:11;15.40;;;13.27;;
5127;SDS011;2582;48.770;9.190;2024-01-07T06:51:37;14.30;;;12.33;;
5127;SDS011;2582;48.770;9.190;2024-01-07T06:54:03;16.30;;;13.80;;
5127;SDS011;2582;48.770;9.190;2024-01-07T06:56:29;16.63;;;13.17;;
5127;SDS011;2582;48.770;9.190;2024-01-07T06:58:54;16.60;;;13.07;;
5127;SDS011;2582;48.770;9.190;2024-01-07T07:01:20;14.47;;;12.90;;
5127;SDS011;2582;48.770;9.190;2024-01-07T07:03:48;14.43;;;12.30;;
5127;SDS011;2582;48.770;9.190;2024-01-07T07:06:14;15.20;;;13.00;;
5127;SDS011;2582;48.770;9.190;2024-01-07T07:08:40;14.90;;;13.30;;
5127;SDS011;2582;48.770;9.190;2024-01-07T07:11:06;14.10;;;12.60;;
5127;SDS011;2582;48.770;9.190;2024-01-07T07:13:31;15.30;;;13.70;;
5127;SDS011;2582;48.770;9.190;2024-01-07T07:15:57;15.50;;;13.07;;
5127;SDS011;2582;48.770;9.190;2024-01-07T07:18:23;13.03;;;11.73;;
5127;SDS011;2582;48.770;9.190;2024-01-07T07:20:49;14.03;;;12.63;;
5127;SDS011;2582;48.770;9.190;2024-01-07T07:23:15;13.33;;;11.60;;
5127;SDS011;2582;48.770;9.190;2024-01-07T07:25:40;13.50;;;11.90;;
5127;SDS011;2582;48.770;9.190;2024-01-07T07:28:06;12.77;;;11.47;;
5127;SDS011;2582;48.770;9.190;2024-01-07T07:30:31;13.73;;;11.57;;
5127;SDS011;2582;48.770;9.190;2024-01-07T07:32:57;11.67;;;10.57;;
5127;SDS011;2582;48.770;9.190;2024-01-07T07:35:22;11.40;;;10.37;;
5127;SDS011;2582;48.770;9.190;2024-01-07T07:37:48;12.37;;;11.07;;
5127;SDS011;2582;48.770;9.190;2024-01-07T07:40:14;9.97;;;8.97;;
5127;SDS011;2582;48.770;9.190;2024-01-07T07:42:40;11.63;;;10.23;;
5127;SDS011;2582;48.770;9.190;2024-01-07T07:45:05;13.00;;;11.60;;
5127;SDS011;2582;48.770;9.190;2024-01-07T07:47:31;11.57;;;9.83;;
5127;SDS011;2582;48.770;9.190;2024-01-07T07:49:57;12.67;;;10.67;;
5127;SDS011;2582;48.770;9.190;2024-01-07T07:52:23;12.27;;;9.97;;
5127;SDS011;2582;48.770;9.190;2024-01-07T07:54:51;11.50;;;10.35;;
5127;SDS011;2582;48.770;9.190;2024-01-07T07:57:17;11.13;;;10.03;;
5127;SDS011;2582;48.770;9.190;2024-01-07T07:59:45;10.40;;;9.17;;
5127;SDS011;2582;48.770;9.190;2024-01-07T08:02:11;11.80;;;9.93;;
5127;SDS011;2582;48.770;9.190;2024-01-07T08:04:37;10.63;;;8.70;;
5127;SDS011;2582;48.770;9.190;2024-01-07T08:07:06;9.33;;;8.37;;
5127;SDS011;2582;48.770;9.190;2024-01-07T08:09:33;9.97;;;8.97;;
5127;SDS011;2582;48.770;9.190;2024-01-07T08:12:01;11.00;;;9.60;;
5127;SDS011;2582;48.770;9.190;2024-01-07T08:14:27;9.77;;;8.60;;
5127;SDS011;2582;48.770;9.190;2024-01-07T08:16:54;12.90;;;9.37;;
5127;SDS011;2582;48.770;9.190;2024-01-07T08:19:19;9.40;;;8.50;;
5127;SDS011;2582;48.770;9.190;2024-01-07T08:21:45;10.27;;;9.13;;
5127;SDS011;2582;48.770;9.190;2024-01-07T08:24:11;9.30;;;8.27;;
5127;SDS011;2582;48.770;9.190;2024-01-07T08:26:37;9.60;;;8.20;;
5127;SDS011;2582;48.770;9.190;2024-01-07T08:29:03;9.73;;;8.50;;
5127;SDS011;2582;48.770;9.190;2024-01-07T08:31:28;9.03;;;7.60;;
5127;SDS011;2582;48.770;9.190;2024-01-07T08:33:55;11.93;;;9.30;;
5127;SDS011;2582;48.770;9.190;2024-01-07T08:36:21;10.07;;;7.47;;
5127;SDS011;2582;48.770;9.190;2024-01-07T08:38:46;9.13;;;8.17;;
5127;SDS011;2582;48.770;9.190;2024-01-07T08:41:14;8.97;;;7.77;;
5127;SDS011;2582;48.770;9.190;2024-01-07T08:43:41;8.80;;;8.00;;
5127;SDS011;2582;48.770;9.190;2024-01-07T08:46:06;9.80;;;8.30;;
5127;SDS011;2582;48.770;9.190;2024-01-07T08:48:32;13.10;;;8.03;;
5127;SDS011;2582;48.770;9.190;2024-01-07T08:50:58;11.10;;;8.67;;
5127;SDS011;2582;48.770;9.190;2024-01-07T08:53:23;9.10;;;8.20;;
5127;SDS011;2582;48.770;9.190;2024-01-07T08:55:49;10.50;;;9.20;;
5127;SDS011;2582;48.770;9.190;2024-01-07T08:58:15;12.60;;;9.60;;
5127;SDS011;2582;48.770;9.190;2024-01-07T09:00:41;10.70;;;9.60;;
5127;SDS011;2582;48.770;9.190;2024-01-07T09:03:07;9.23;;;8.33;;
5127;SDS011;2582;48.770;9.190;2024-01-07T09:05:32;11.10;;;9.60;;
5127;SDS011;2582;48.770;9.190;2024-01-07T09:07:58;12.63;;;9.53;;
5127;SDS011;2582;48.770;9.190;2024-01-07T09:10:25;12.70;;;9.53;;
5127;SDS011;2582;48.770;9.190;2024-01-07T09:12:51;10.50;;;9.13;;
5127;SDS011;2582;48.770;9.190;2024-01-07T09:15:18;13.53;;;12.13;;
5127;SDS011;2582;48.770;9.190;2024-01-07T09:17:45;13.70;;;12.23;;
5127;SDS011;2582;48.770;9.190;2024-01-07T09:20:12;12.73;;;9.80;;
5127;SDS011;2582;48.770;9.190;2024-01-07T09:22:38;9.53;;;8.37;;
5127;SDS011;2582;48.770;9.190;2024-01-07T09:25:04;7.93;;;6.90;;
5127;SDS011;2582;48.770;9.190;2024-01-07T09:27:30;7.70;;;6.57;;
5127;SDS011;2582;48.770;9.190;2024-01-07T09:29:57;7.97;;;7.20;;
5127;SDS011;2582;48.770;9.190;2024-01-07T09:32:23;7.17;;;6.00;;
5127;SDS011;2582;48.770;9.190;2024-01-07T09:34:48;7.43;;;6.13;;
5127;SDS011;2582;48.770;9.190;2024-01-07T09:37:14;6.17;;;5.40;;
5127;SDS011;2582;48.770;9.190;2024-01-07T09:39:41;8.17;;;5.80;;
5127;SDS011;2582;48.770;9.190;2024-01-07T09:42:11;6.97;;;5.87;;
5127;SDS011;2582;48.770;9.190;2024-01-07T09:44:42;5.90;;;5.30;;
5127;SDS011;2582;48.770;9.190;2024-01-07T09:47:11;7.10;;;6.40;;
5127;SDS011;2582;48.770;9.190;2024-01-07T09:49:39;8.57;;;6.47;;
5127;SDS011;2582;48.770;9.190;2024-01-07T09:52:05;7.47;;;6.60;;
5127;SDS011;2582;48.770;9.190;2024-01-07T09:54:35;11.10;;;10.00;;
5127;SDS011;2582;48.770;9.190;2024-01-07T09:57:03;6.80;;;6.10;;
5127;SDS011;2582;48.770;9.190;2024-01-07T09:59:31;8.43;;;5.73;;
5127;SDS011;2582;48.770;9.190;2024-01-07T10:01:58;6.97;;;6.27;;
5127;SDS011;2582;48.770;9.190;2024-01-07T10:04:24;6.90;;;6.10;;
5127;SDS011;2582;48.770;9.190;2024-01-07T10:06:50;8.63;;;6.63;;
5127;SDS011;2582;48.770;9.190;2024-01-07T10:09:17;10.27;;;7.37;;
5127;SDS011;2582;48.770;9.190;2024-01-07T10:11:43;7.33;;;6.57;;
5127;SDS011;2582;48.770;9.190;2024-01-07T10:14:09;6.80;;;5.87;;
5127;SDS011;2582;48.770;9.190;2024-01-07T10:16:35;8.20;;;6.97;;
5127;SDS011;2582;48.770;9.190;2024-01-07T10:19:01;6.93;;;5.63;;
5127;SDS011;2582;48.770;9.190;2024-01-07T10:21:28;7.53;;;6.80;;
5127;SDS011;2582;48.770;9.190;2024-01-07T10:24:06;9.17;;;7.00;;
5127;SDS011;2582;48.770;9.190;2024-01-07T10:26:37;6.83;;;6.07;;
5127;SDS011;2582;48.770;9.190;2024-01-07T10:29:03;7.33;;;6.30;;
5127;SDS011;2582;48.770;9.190;2024-01-07T10:31:29;6.90;;;5.83;;
5127;SDS011;2582;48.770;9.190;2024-01-07T10:33:56;7.30;;;6.27;;
5127;SDS011;2582;48.770;9.190;2024-01-07T10:36:22;8.67;;;6.13;;
5127;SDS011;2582;48.770;9.190;2024-01-07T10:38:49;7.73;;;6.60;;
5127;SDS011;2582;48.770;9.190;2024-01-07T10:41:17;8.10;;;7.17;;
5127;SDS011;2582;48.770;9.190;2024-01-07T10:43:46;8.20;;;7.10;;
5127;SDS011;2582;48.770;9.190;2024-01-07T10:46:12;8.43;;;7.03;;
5127;SDS011;2582;48.770;9.190;2024-01-07T10:48:41;8.17;;;6.97;;
5127;SDS011;2582;48.770;9.190;2024-01-07T10:51:18;9.60;;;8.60;;
5127;SDS011;2582;48.770;9.190;2024-01-07T10:53:46;8.13;;;7.33;;
5127;SDS011;2582;48.770;9.190;2024-01-07T10:56:18;7.60;;;6.80;;
5127;SDS011;2582;48.770;9.190;2024-01-07T10:58:49;7.23;;;6.53;;
5127;SDS011;2582;48.770;9.190;2024-01-07T11:01:19;9.27;;;7.70;;
5127;SDS011;2582;48.770;9.190;2024-01-07T11:04:03;8.10;;;7.30;;
5127;SDS011;2582;48.770;9.190;2024-01-07T11:11:54;9.73;;;7.37;;
5127;SDS011;2582;48.770;9.190;2024-01-07T11:17:39;8.83;;;7.90;;
5127;SDS011;2582;48.770;9.190;2024-01-07T11:20:10;9.40;;;8.07;;
5127;SDS011;2582;48.770;9.190;2024-01-07T11:22:39;9.30;;;7.40;;
5127;SDS011;2582;48.770;9.190;2024-01-07T11:25:27;9.73;;;7.30;;
5127;SDS011;2582;48.770;9.190;2024-01-07T11:27:56;10.17;;;7.27;;
5127;SDS011;2582;48.770;9.190;2024-01-07T11:30:22;10.00;;;7.93;;
5127;SDS011;2582;48.770;9.190;2024-01-07T11:32:48;7.67;;;6.53;;
5127;SDS011;2582;48.770;9.190;2024-01-07T11:38:24;8.40;;;7.20;;
5127;SDS011;2582;48.770;9.190;2024-01-07T11:40:50;7.57;;;6.77;;
5127;SDS011;2582;48.770;9.190;2024-01-07T11:43:17;7.47;;;6.70;;
5127;SDS011;2582;48.770;9.190;2024-01-07T11:45:43;7.40;;;6.60;;
5127;SDS011;2582;48.770;9.190;2024-01-07T11:48:09;8.30;;;7.50;;
5127;SDS011;2582;48.770;9.190;2024-01-07T11:50:35;9.23;;;7.60;;
5127;SDS011;2582;48.770;9.190;2024-01-07T11:53:01;7.60;;;6.90;;
5127;SDS011;2582;48.770;9.190;2024-01-07T11:55:27;7.70;;;7.00;;
5127;SDS011;2582;48.770;9.190;2024-01-07T11:57:57;8.10;;;7.10;;
5127;SDS011;2582;48.770;9.190;2024-01-07T12:00:25;7.50;;;6.57;;
5127;SDS011;2582;48.770;9.190;2024-01-07T12:02:51;7.97;;;7.27;;
5127;SDS011;2582;48.770;9.190;2024-01-07T12:05:17;7.93;;;7.13;;
5127;SDS011;2582;48.770;9.190;2024-01-07T12:07:42;8.47;;;7.40;;
5127;SDS011;2582;48.770;9.190;2024-01-07T12:10:08;8.93;;;7.17;;
5127;SDS011;2582;48.770;9.190;2024-01-07T12:12:38;8.33;;;7.50;;
5127;SDS011;2582;48.770;9.190;2024-01-07T12:15:07;11.53;;;8.87;;
5127;SDS011;2582;48.770;9.190;2024-01-07T12:17:33;8.77;;;7.87;;
5127;SDS011;2582;48.770;9.190;2024-01-07T12:20:02;9.53;;;8.27;;
5127;SDS011;2582;48.770;9.190;2024-01-07T12:22:30;8.90;;;8.00;;
5127;SDS011;2582;48.770;9.190;2024-01-07T12:25:07;9.70;;;8.43;;
5127;SDS011;2582;48.770;9.190;2024-01-07T12:27:36;11.73;;;8.03;;
5127;SDS011;2582;48.770;9.190;2024-01-07T12:30:02;9.27;;;8.23;;
5127;SDS011;2582;48.770;9.190;2024-01-07T12:32:30;9.60;;;8.03;;
5127;SDS011;2582;48.770;9.190;2024-01-07T12:34:59;9.83;;;8.63;;
5127;SDS011;2582;48.770;9.190;2024-01-07T12:37:27;10.70;;;9.00;;
5127;SDS011;2582;48.770;9.190;2024-01-07T12:39:54;10.57;;;9.17;;
5127;SDS011;2582;48.770;9.190;2024-01-07T12:42:19;9.17;;;8.10;;
5127;SDS011;2582;48.770;9.190;2024-01-07T12:44:47;10.10;;;8.80;;
5127;SDS011;2582;48.770;9.190;2024-01-07T12:47:14;10.13;;;9.03;;
5127;SDS011;2582;48.770;9.190;2024-01-07T12:49:39;10.90;;;9.03;;
5127;SDS011;2582;48.770;9.190;2024-01-07T12:52:05;12.03;;;10.20;;
5127;SDS011;2582;48.770;9.190;2024-01-07T12:54:31;11.13;;;10.03;;
5127;SDS011;2582;48.770;9.190;2024-01-07T12:56:56;9.63;;;8.63;;
5127;SDS011;2582;48.770;9.190;2024-01-07T12:59:22;12.00;;;9.80;;
5127;SDS011;2582;48.770;9.190;2024-01-07T13:01:47;13.60;;;9.93;;
5127;SDS011;2582;48.770;9.190;2024-01-07T13:04:15;10.10;;;9.00;;
5127;SDS011;2582;48.770;9.190;2024-01-07T13:06:41;11.90;;;9.53;;
5127;SDS011;2582;48.770;9.190;2024-01-07T13:09:07;11.20;;;10.00;;
5127;SDS011;2582;48.770;9.190;2024-01-07T13:11:34;14.07;;;11.60;;
5127;SDS011;2582;48.770;9.190;2024-01-07T13:14:00;11.80;;;10.00;;
5127;SDS011;2582;48.770;9.190;2024-01-07T13:16:27;11.40;;;10.33;;
5127;SDS011;2582;48.770;9.190;2024-01-07T13:18:53;11.67;;;10.47;;
5127;SDS011;2582;48.770;9.190;2024-01-07T13:21:19;11.37;;;10.20;;
5127;SDS011;2582;48.770;9.190;2024-01-07T13:23:45;10.37;;;9.37;;
5127;SDS011;2582;48.770;9.190;2024-01-07T13:26:12;10.50;;;9.40;;
5127;SDS011;2582;48.770;9.190;2024-01-07T13:28:38;12.13;;;10.60;;
5127;SDS011;2582;48.770;9.190;2024-01-07T13:31:04;10.73;;;9.73;;
5127;SDS011;2582;48.770;9.190;2024-01-07T13:33:31;10.63;;;9.43;;
5127;SDS011;2582;48.770;9.190;2024-01-07T13:35:57;12.80;;;10.50;;
5127;SDS011;2582;48.770;9.190;2024-01-07T13:38:23;11.03;;;9.87;;
5127;SDS011;2582;48.770;9.190;2024-01-07T13:40:48;11.27;;;9.83;;
5127;SDS011;2582;48.770;9.190;2024-01-07T13:43:14;12.63;;;11.33;;
5127;SDS011;2582;48.770;9.190;2024-01-07T13:45:40;11.93;;;10.40;;
5127;SDS011;2582;48.770;9.190;2024-01-07T13:48:06;12.13;;;10.93;;
5127;SDS011;2582;48.770;9.190;2024-01-07T13:50:32;12.00;;;10.37;;
5127;SDS011;2582;48.770;9.190;2024-01-07T13:52:58;12.20;;;10.93;;
5127;SDS011;2582;48.770;9.190;2024-01-07T13:55:24;14.57;;;12.00;;
5127;SDS011;2582;48.770;9.190;2024-01-07T13:57:50;10.87;;;9.63;;
5127;SDS011;2582;48.770;9.190;2024-01-07T14:00:15;11.13;;;9.93;;
5127;SDS011;2582;48.770;9.190;2024-01-07T14:02:43;12.90;;;9.63;;
5127;SDS011;2582;48.770;9.190;2024-01-07T14:05:12;12.83;;;10.93;;
5127;SDS011;2582;48.770;9.190;2024-01-07T14:07:38;12.53;;;10.77;;
5127;SDS011;2582;48.770;9.190;2024-01-07T14:10:04;11.33;;;10.00;;
5127;SDS011;2582;48.770;9.190;2024-01-07T14:12:31;13.50;;;11.07;;
5127;SDS011;2582;48.770;9.190;2024-01-07T14:14:56;13.47;;;11.40;;
5127;SDS011;2582;48.770;9.190;2024-01-07T14:17:23;14.37;;;12.37;;
5127;SDS011;2582;48.770;9.190;2024-01-07T14:19:49;13.40;;;11.80;;
5127;SDS011;2582;48.770;9.190;2024-01-07T14:22:17;13.73;;;11.80;;
5127;SDS011;2582;48.770;9.190;2024-01-07T14:24:43;15.33;;;12.20;;
5127;SDS011;2582;48.770;9.190;2024-01-07T14:27:08;14.20;;;12.30;;
5127;SDS011;2582;48.770;9.190;2024-01-07T14:29:36;16.10;;;13.80;;
5127;SDS011;2582;48.770;9.190;2024-01-07T14:32:02;13.80;;;12.07;;
5127;SDS011;2582;48.770;9.190;2024-01-07T14:34:31;15.40;;;12.90;;
5127;SDS011;2582;48.770;9.190;2024-01-07T14:36:57;16.23;;;13.40;;
5127;SDS011;2582;48.770;9.190;2024-01-07T14:39:23;14.97;;;12.83;;
5127;SDS011;2582;48.770;9.190;2024-01-07T14:41:49;16.40;;;13.07;;
5127;SDS011;2582;48.770;9.190;2024-01-07T14:44:14;15.63;;;13.20;;
5127;SDS011;2582;48.770;9.190;2024-01-07T14:46:40;17.90;;;14.57;;
5127;SDS011;2582;48.770;9.190;2024-01-07T14:49:06;14.77;;;13.23;;
5127;SDS011;2582;48.770;9.190;2024-01-07T14:51:32;17.70;;;14.70;;
5127;SDS011;2582;48.770;9.190;2024-01-07T14:53:58;17.60;;;14.30;;
5127;SDS011;2582;48.770;9.190;2024-01-07T14:56:23;15.93;;;13.43;;
5127;SDS011;2582;48.770;9.190;2024-01-07T14:58:49;14.53;;;13.03;;
5127;SDS011;2582;48.770;9.190;2024-01-07T15:01:15;15.67;;;13.57;;
5127;SDS011;2582;48.770;9.190;2024-01-07T15:03:41;17.70;;;14.63;;